• Join FlightAware (Why Join?)
  • Login
  • US Flag 
01:03AM EDT


 

Airport Tracker/Info


-or-


 

Live Flight TrackerFlight Track Log ✈ N137TK ✈ 14-Oct-2013 ✈ KLCQ - KAPF

Flight Track Log - Related Links

Times and Time Zones

All times are in EDT time to prevent confusion due to time zone crossing. See the N137TK flight status page for this flight to view local times or setup timezone preferences in your user account.

Time Position Orientation Groundspeed Altitude Reporting Facility
EDT Latitude Longitude Course Direction KTS MPH feet Rate Location/Type
03:06PM 30.0803 -82.5300 171° South 265 305 5,900  Level Jacksonville Center
03:07PM 30.0300 -82.5208 171° South 213 245 8,000 2,100 Climbing Jacksonville Center
03:08PM 29.9778 -82.4969 158° South 192 221 10,200 1,980 Climbing Jacksonville Center
03:09PM 29.9297 -82.4708 155° Southeast 187 215 12,000 1,620 Climbing Jacksonville Center
03:10PM 29.8775 -82.4469 158° South 193 222 13,500 1,380 Climbing Jacksonville Center
03:11PM 29.8292 -82.4208 155° Southeast 198 228 14,800 1,320 Climbing Jacksonville Center
03:12PM 29.7750 -82.3950 158° South 204 235 16,200 1,320 Climbing Jacksonville Center
03:13PM 29.7183 -82.3689 158° South 211 243 17,500 1,140 Climbing Jacksonville Center
03:14PM 29.6600 -82.3406 157° South 217 250 18,500 1,020 Climbing Jacksonville Center
03:15PM 29.5972 -82.3097 157° South 228 262 19,600 1,200 Climbing Jacksonville Center
03:16PM 29.5344 -82.2792 157° South 233 268 20,900 1,200 Climbing Jacksonville Center
03:17PM 29.4758 -82.2486 156° South 233 268 22,100 1,020 Climbing Jacksonville Center
03:18PM 29.4150 -82.2203 158° South 233 268 23,000 420 Climbing Jacksonville Center
03:19PM 29.3461 -82.1875 157° South 246 283 23,000  Level Jacksonville Center
03:20PM 29.2664 -82.1522 159° South 276 318 23,000  Level Jacksonville Center
03:21PM 29.1889 -82.1147 157° South 296 341 23,000  Level Jacksonville Center
03:22PM 29.1094 -82.0750 156° South 306 352 23,000  Level Jacksonville Center
03:23PM 29.0297 -82.0353 156° South 311 358 23,000  Level Jacksonville Center
03:24PM 28.9439 -81.9908 156° South 311 358 23,000  Level Jacksonville Center
03:25PM 28.8664 -81.9561 159° South 311 358 23,000  Level Jacksonville Center
03:26PM 28.7869 -81.9167 156° South 311 358 23,000  Level Jacksonville Center
03:27PM 28.7053 -81.8794 158° South 311 358 23,000  Level Jacksonville Center
03:28PM 28.6256 -81.8447 159° South 311 358 23,000  Level Jacksonville Center
03:29PM 28.5481 -81.8103 159° South 311 358 23,000  Level Jacksonville Center
03:32PM 28.3794 -81.7667 167° South 309 356 23,000  Level Miami Center
03:33PM 28.2844 -81.7436 168° South 314 361 23,000  Level Miami Center
03:34PM 28.2036 -81.7236 168° South 314 361 23,000 -420 Level Miami Center
03:35PM 28.1167 -81.7033 168° South 314 361 22,200 -900 Descending Miami Center
03:36PM 28.0256 -81.6806 168° South 319 367 21,200 -1,020 Descending Miami Center
03:37PM 27.9325 -81.6581 168° South 332 382 20,200 -1,020 Descending Miami Center
03:38PM 27.8392 -81.6375 169° South 340 391 19,200 -960 Descending Miami Center
03:39PM 27.7464 -81.6103 165° South 345 397 18,300 -960 Descending Miami Center
03:40PM 27.6633 -81.5903 168° South 345 397 17,300 -960 Descending Miami Center
03:41PM 27.5714 -81.5936 182° South 345 397 16,400 -480 Descending Miami Center
03:42PM 27.4897 -81.6042 187° South 327 376 16,400  Level Miami Center
03:43PM 27.4081 -81.6150 187° South 308 354 16,400  Level Miami Center
03:44PM 27.3306 -81.6256 187° South 290 334 16,400  Level Miami Center
03:45PM 27.2528 -81.6364 187° South 290 334 16,400  Level Miami Center
03:46PM 27.1669 -81.6469 186° South 290 334 16,400 -600 Level Miami Center
03:47PM 27.0872 -81.6553 185° South 290 334 15,200 -1,380 Descending Miami Center
03:48PM 27.0142 -81.6594 183° South 296 341 13,700 -1,500 Descending Miami Center
03:49PM 26.9306 -81.6653 184° South 296 341 12,300 -1,440 Descending Miami Center
03:50PM 26.8472 -81.6547 174° South 296 341 10,900 -1,380 Descending Miami Center
03:51PM 26.7661 -81.6469 175° South 296 341 9,600 -1,320 Descending Miami Center
03:52PM 26.6869 -81.6436 178° South 291 335 8,300 -1,320 Descending Miami Center
03:53PM 26.6006 -81.6656 193° South 290 334 7,000 -1,200 Descending Miami Center
03:54PM 26.5294 -81.6697 183° South 279 321 5,900 -1,140 Descending Miami Center
03:55PM 26.4686 -81.6833 191° South 265 305 4,800 -1,020 Descending Miami Center
03:56PM 26.4072 -81.7042 197° South 246 283 3,900 -900 Descending Miami Center
03:57PM 26.3407 -81.7454 209° Southwest  Level FlightAware Approximate
04:04PM 26.1500 -81.7667 185° South  Level FlightAware Approximate
04:05PM 26.1524 -81.7756 185° South  Level Estimated
04:06PM 26.1524 -81.7756 185° South  Level Estimated
04:07PM 26.1524 -81.7756 185° South  Level Estimated